createdAt,value
2016-07-30T00:00:07.524Z,74287
2016-07-30T00:00:16.260Z,74290
2016-07-30T00:00:24.978Z,74285
2016-07-30T00:00:34.336Z,74286
2016-07-30T00:00:43.048Z,74291
2016-07-30T00:00:51.801Z,74287
2016-07-30T00:01:00.484Z,74292
2016-07-30T00:01:09.233Z,74291
2016-07-30T00:01:17.929Z,74291
2016-07-30T00:01:26.635Z,74289
2016-07-30T00:01:35.389Z,74290
2016-07-30T00:01:44.100Z,74290
2016-07-30T00:01:52.820Z,74289
2016-07-30T00:02:01.521Z,74290
2016-07-30T00:02:10.218Z,74287
2016-07-30T00:02:18.933Z,74290
2016-07-30T00:02:27.663Z,74289
2016-07-30T00:02:36.378Z,74289
2016-07-30T00:02:45.094Z,74287
2016-07-30T00:02:53.810Z,74289
2016-07-30T00:03:02.536Z,74286
2016-07-30T00:03:11.238Z,74283
2016-07-30T00:03:19.972Z,74284
2016-07-30T00:03:28.657Z,74284
2016-07-30T00:03:37.349Z,74285
2016-07-30T00:03:46.043Z,74286
2016-07-30T00:03:54.739Z,74285
2016-07-30T00:04:03.438Z,74285
2016-07-30T00:04:12.152Z,74286
2016-07-30T00:04:20.885Z,74287
2016-07-30T00:04:29.612Z,74286
2016-07-30T00:04:38.320Z,74287
2016-07-30T00:04:47.011Z,74287
2016-07-30T00:04:55.708Z,74285
2016-07-30T00:05:04.413Z,74286
2016-07-30T00:05:13.111Z,74287
2016-07-30T00:05:21.850Z,74289
2016-07-30T00:05:30.565Z,74291
2016-07-30T00:05:39.266Z,74292
2016-07-30T00:05:47.992Z,74290
2016-07-30T00:05:56.696Z,74292
2016-07-30T00:06:06.117Z,74288
2016-07-30T00:06:14.841Z,74293
2016-07-30T00:06:23.566Z,74288
2016-07-30T00:06:32.934Z,74291
2016-07-30T00:06:41.838Z,74289
2016-07-30T00:06:50.497Z,74289
2016-07-30T00:07:07.918Z,74291
2016-07-30T00:07:16.622Z,74287
2016-07-30T00:07:25.381Z,74290
2016-07-30T00:07:34.098Z,74288
2016-07-30T00:07:42.814Z,74286
2016-07-30T00:07:51.505Z,74288
2016-07-30T00:08:00.231Z,74287
2016-07-30T00:08:08.959Z,74287
2016-07-30T00:08:17.659Z,74288
2016-07-30T00:08:26.384Z,74286
2016-07-30T00:08:35.104Z,74286
2016-07-30T00:08:43.785Z,74287
2016-07-30T00:08:52.524Z,74291
2016-07-30T00:09:01.261Z,74288
2016-07-30T00:09:10.001Z,74285
2016-07-30T00:09:18.680Z,74285
2016-07-30T00:09:27.434Z,74287
2016-07-30T00:09:36.143Z,74286
2016-07-30T00:09:44.872Z,74282
2016-07-30T00:09:53.649Z,74285
2016-07-30T00:10:02.369Z,74285
2016-07-30T00:10:11.048Z,74283
2016-07-30T00:10:19.709Z,74286
2016-07-30T00:10:28.400Z,74286
2016-07-30T00:10:37.121Z,74287
2016-07-30T00:10:45.854Z,74291
2016-07-30T00:10:54.584Z,74289
2016-07-30T00:11:03.325Z,74294
2016-07-30T00:11:12.039Z,74290
2016-07-30T00:11:20.738Z,74291
2016-07-30T00:11:29.416Z,74289
2016-07-30T00:11:38.140Z,74291
2016-07-30T00:11:46.851Z,74295
2016-07-30T00:11:55.546Z,74290
2016-07-30T00:12:04.242Z,74290
2016-07-30T00:12:12.965Z,74291
2016-07-30T00:12:21.664Z,74288
2016-07-30T00:12:30.340Z,74287
2016-07-30T00:12:39.063Z,74285
2016-07-30T00:12:48.450Z,74288
2016-07-30T00:12:57.149Z,74287
2016-07-30T00:13:05.867Z,74282
2016-07-30T00:13:14.572Z,74283
2016-07-30T00:13:23.314Z,74282
2016-07-30T00:13:32.056Z,74283
2016-07-30T00:13:40.744Z,74279
2016-07-30T00:13:49.470Z,74283
2016-07-30T00:13:58.167Z,74278
2016-07-30T00:14:07.548Z,74281
2016-07-30T00:14:16.257Z,74281
2016-07-30T00:14:24.981Z,74282
2016-07-30T00:14:33.704Z,74279
2016-07-30T00:14:42.375Z,74281
2016-07-30T00:14:51.078Z,74283
2016-07-30T00:14:59.788Z,74288
2016-07-30T00:15:08.479Z,74286
2016-07-30T00:15:17.179Z,74287
2016-07-30T00:15:25.890Z,74286
2016-07-30T00:15:34.581Z,74287
2016-07-30T00:15:43.321Z,74287
2016-07-30T00:15:52.032Z,74283
2016-07-30T00:16:00.708Z,74286
2016-07-30T00:16:09.404Z,74284
2016-07-30T00:16:18.087Z,74285
2016-07-30T00:16:26.787Z,74288
2016-07-30T00:16:35.459Z,74285
2016-07-30T00:16:44.230Z,74284
2016-07-30T00:16:52.957Z,74284
2016-07-30T00:17:01.675Z,74287
2016-07-30T00:17:10.362Z,74283
2016-07-30T00:17:19.030Z,74282
2016-07-30T00:17:27.729Z,74287
2016-07-30T00:17:36.415Z,74285
2016-07-30T00:17:45.154Z,74284
2016-07-30T00:17:53.831Z,74285
2016-07-30T00:18:02.532Z,74284
2016-07-30T00:18:11.188Z,74285
2016-07-30T00:18:19.903Z,74287
2016-07-30T00:18:28.611Z,74289
2016-07-30T00:18:37.369Z,74292
2016-07-30T00:18:46.094Z,74288
2016-07-30T00:18:54.799Z,74290
2016-07-30T00:19:03.525Z,74291
2016-07-30T00:19:12.222Z,74289
2016-07-30T00:19:20.946Z,74288
2016-07-30T00:19:29.665Z,74287
2016-07-30T00:19:38.387Z,74290
2016-07-30T00:19:47.123Z,74286
2016-07-30T00:20:04.599Z,74288
2016-07-30T00:20:13.304Z,74289
2016-07-30T00:20:22.031Z,74290
2016-07-30T00:20:30.744Z,74290
2016-07-30T00:20:39.467Z,74291
2016-07-30T00:20:48.188Z,74291
2016-07-30T00:20:56.911Z,74290
2016-07-30T00:21:05.604Z,74290
2016-07-30T00:21:14.342Z,74287
2016-07-30T00:21:23.065Z,74290
2016-07-30T00:21:31.773Z,74290
2016-07-30T00:21:40.512Z,74291
2016-07-30T00:21:49.226Z,74290
2016-07-30T00:21:57.949Z,74285
2016-07-30T00:22:06.671Z,74287
2016-07-30T00:22:15.373Z,74287
2016-07-30T00:22:24.094Z,74287
2016-07-30T00:22:32.810Z,74287
2016-07-30T00:22:41.510Z,74283
2016-07-30T00:22:50.216Z,74282
2016-07-30T00:22:58.909Z,74285
2016-07-30T00:23:07.610Z,74285
2016-07-30T00:23:16.323Z,74285
2016-07-30T00:23:25.022Z,74289
2016-07-30T00:23:34.447Z,74286
2016-07-30T00:23:43.807Z,74288
2016-07-30T00:23:52.496Z,74284
2016-07-30T00:24:01.202Z,74286
2016-07-30T00:24:09.945Z,74287
2016-07-30T00:24:18.656Z,74284
2016-07-30T00:24:27.386Z,74287
2016-07-30T00:24:36.098Z,74287
2016-07-30T00:24:44.800Z,74285
2016-07-30T00:24:53.520Z,74284
2016-07-30T00:25:02.226Z,74284
2016-07-30T00:25:10.921Z,74284
2016-07-30T00:25:19.662Z,74284
2016-07-30T00:25:28.364Z,74285
2016-07-30T00:25:37.087Z,74277
2016-07-30T00:25:45.840Z,74277
2016-07-30T00:25:54.554Z,74281
2016-07-30T00:26:03.266Z,74279
2016-07-30T00:26:11.969Z,74276
2016-07-30T00:26:21.393Z,74279
2016-07-30T00:26:30.130Z,74274
2016-07-30T00:26:38.807Z,74277
2016-07-30T00:26:47.513Z,74275
2016-07-30T00:26:56.236Z,74275
2016-07-30T00:27:04.905Z,74270
2016-07-30T00:27:13.647Z,74274
2016-07-30T00:27:22.359Z,74276
2016-07-30T00:27:31.065Z,74276
2016-07-30T00:27:39.810Z,74282
2016-07-30T00:27:48.512Z,74280
2016-07-30T00:27:57.258Z,74282
2016-07-30T00:28:05.981Z,74285
2016-07-30T00:28:14.706Z,74286
2016-07-30T00:28:23.433Z,74286
2016-07-30T00:28:32.156Z,74287
2016-07-30T00:28:40.888Z,74289
2016-07-30T00:28:49.600Z,74288
2016-07-30T00:28:58.322Z,74288
2016-07-30T00:29:07.032Z,74282
2016-07-30T00:29:15.755Z,74281
2016-07-30T00:29:24.451Z,74283
2016-07-30T00:29:33.118Z,74285
2016-07-30T00:29:41.843Z,74286
2016-07-30T00:29:50.568Z,74286
2016-07-30T00:29:59.305Z,74287
2016-07-30T00:30:08.032Z,74288
2016-07-30T00:30:16.735Z,74286
2016-07-30T00:30:25.463Z,74285
2016-07-30T00:30:34.201Z,74281
2016-07-30T00:30:42.923Z,74281
2016-07-30T00:30:51.631Z,74283
2016-07-30T00:31:00.364Z,74281
2016-07-30T00:31:09.054Z,74282
2016-07-30T00:31:17.755Z,74278
2016-07-30T00:31:26.457Z,74274
2016-07-30T00:31:35.177Z,74277
2016-07-30T00:31:43.916Z,74279
2016-07-30T00:31:52.616Z,74282
2016-07-30T00:32:01.308Z,74283
2016-07-30T00:32:10.737Z,74284
2016-07-30T00:32:19.451Z,74284
2016-07-30T00:32:28.144Z,74283
2016-07-30T00:32:36.871Z,74277
2016-07-30T00:32:45.583Z,74280
2016-07-30T00:32:54.326Z,74277
2016-07-30T00:33:03.010Z,74274
2016-07-30T00:33:11.713Z,74272
2016-07-30T00:33:20.397Z,74275
2016-07-30T00:33:29.100Z,74277
2016-07-30T00:33:37.847Z,74276
2016-07-30T00:33:46.552Z,74281
2016-07-30T00:33:55.291Z,74276
2016-07-30T00:34:03.991Z,74274
2016-07-30T00:34:12.705Z,74278
2016-07-30T00:34:21.465Z,74281
2016-07-30T00:34:30.173Z,74283
2016-07-30T00:34:38.850Z,74281
2016-07-30T00:34:47.554Z,74277
2016-07-30T00:34:56.253Z,74284
2016-07-30T00:35:04.980Z,74283
2016-07-30T00:35:13.718Z,74282
2016-07-30T00:35:22.430Z,74279
2016-07-30T00:35:31.150Z,74281
2016-07-30T00:35:39.834Z,74278
2016-07-30T00:35:48.539Z,74277
2016-07-30T00:35:57.222Z,74278
2016-07-30T00:36:05.932Z,74279
2016-07-30T00:36:14.626Z,74278
2016-07-30T00:36:23.311Z,74281
2016-07-30T00:36:32.032Z,74283
2016-07-30T00:36:40.721Z,74274
2016-07-30T00:36:49.424Z,74279
2016-07-30T00:36:58.169Z,74275
2016-07-30T00:37:15.631Z,74277
2016-07-30T00:37:24.399Z,74276
2016-07-30T00:37:33.093Z,74272
2016-07-30T00:37:41.803Z,74272
2016-07-30T00:37:50.504Z,74271
2016-07-30T00:37:59.210Z,74270
2016-07-30T00:38:07.893Z,74272
2016-07-30T00:38:16.592Z,74264
2016-07-30T00:38:25.280Z,74263
2016-07-30T00:38:34.034Z,74268
2016-07-30T00:38:42.744Z,74265
2016-07-30T00:38:51.480Z,74264
2016-07-30T00:39:00.211Z,74262
2016-07-30T00:39:08.905Z,74262
2016-07-30T00:39:17.614Z,74255
2016-07-30T00:39:26.315Z,74252
2016-07-30T00:39:35.058Z,74255
2016-07-30T00:39:43.762Z,74254
2016-07-30T00:39:52.506Z,74254
2016-07-30T00:40:01.223Z,74254
2016-07-30T00:40:09.917Z,74258
2016-07-30T00:40:18.625Z,74259
2016-07-30T00:40:27.308Z,74262
2016-07-30T00:40:36.022Z,74267
2016-07-30T00:40:44.714Z,74267
2016-07-30T00:40:53.454Z,74271
2016-07-30T00:41:02.171Z,74272
2016-07-30T00:41:10.854Z,74271
2016-07-30T00:41:19.574Z,74272
2016-07-30T00:41:28.286Z,74273
2016-07-30T00:41:37.025Z,74270
2016-07-30T00:41:45.738Z,74271
2016-07-30T00:41:54.471Z,74271
2016-07-30T00:42:03.226Z,74278
2016-07-30T00:42:11.938Z,74274
2016-07-30T00:42:20.648Z,74273
2016-07-30T00:42:29.335Z,74270
2016-07-30T00:42:38.038Z,74269
2016-07-30T00:42:46.764Z,74272
2016-07-30T00:42:55.517Z,74270
2016-07-30T00:43:04.184Z,74270
2016-07-30T00:43:12.927Z,74274
2016-07-30T00:43:21.655Z,74273
2016-07-30T00:43:30.367Z,74275
2016-07-30T00:43:39.091Z,74273
2016-07-30T00:43:47.794Z,74273
2016-07-30T00:43:56.499Z,74271
2016-07-30T00:44:05.231Z,74265
2016-07-30T00:44:13.934Z,74266
2016-07-30T00:44:22.680Z,74269
2016-07-30T00:44:31.392Z,74275
2016-07-30T00:44:40.089Z,74276
2016-07-30T00:44:48.831Z,74270
2016-07-30T00:44:57.483Z,74273
2016-07-30T00:45:06.204Z,74269
2016-07-30T00:45:14.926Z,74268
2016-07-30T00:45:23.656Z,74272
2016-07-30T00:45:32.368Z,74274
2016-07-30T00:45:41.066Z,74274
2016-07-30T00:45:49.726Z,74274
2016-07-30T00:45:58.428Z,74276
2016-07-30T00:46:07.119Z,74279
2016-07-30T00:46:15.855Z,74281
2016-07-30T00:46:24.542Z,74277
2016-07-30T00:46:33.264Z,74275
2016-07-30T00:46:41.955Z,74274
2016-07-30T00:46:50.655Z,74273
2016-07-30T00:46:59.407Z,74269
2016-07-30T00:47:08.136Z,74270
2016-07-30T00:47:16.892Z,74264
2016-07-30T00:47:25.609Z,74268
2016-07-30T00:47:34.321Z,74268
2016-07-30T00:47:43.039Z,74268
2016-07-30T00:47:51.784Z,74269
2016-07-30T00:48:00.502Z,74270
2016-07-30T00:48:09.194Z,74272
2016-07-30T00:48:17.890Z,74273
2016-07-30T00:48:26.589Z,74275
2016-07-30T00:48:35.289Z,74277
2016-07-30T00:48:43.990Z,74273
2016-07-30T00:48:52.721Z,74278
2016-07-30T00:49:01.411Z,74275
2016-07-30T00:49:10.173Z,74274
2016-07-30T00:49:18.862Z,74276
2016-07-30T00:49:27.574Z,74277
2016-07-30T00:49:36.289Z,74284
2016-07-30T00:49:44.980Z,74285
2016-07-30T00:49:53.718Z,74273
2016-07-30T00:50:02.461Z,74269
2016-07-30T00:50:11.167Z,74274
2016-07-30T00:50:19.864Z,74275
2016-07-30T00:50:28.553Z,74280
2016-07-30T00:50:37.263Z,74279
2016-07-30T00:50:45.967Z,74280
2016-07-30T00:50:54.638Z,74278
2016-07-30T00:51:03.319Z,74275
2016-07-30T00:51:12.022Z,74272
2016-07-30T00:51:20.708Z,74272
2016-07-30T00:51:29.403Z,74276
2016-07-30T00:51:38.140Z,74275
2016-07-30T00:51:46.826Z,74278
2016-07-30T00:51:55.533Z,74276
2016-07-30T00:52:04.251Z,74279
2016-07-30T00:52:30.376Z,74277
2016-07-30T00:52:39.086Z,74279
2016-07-30T00:52:47.793Z,74280
2016-07-30T00:52:56.493Z,74276
2016-07-30T00:53:05.220Z,74275
2016-07-30T00:53:13.931Z,74274
2016-07-30T00:53:22.638Z,74275
2016-07-30T00:53:31.405Z,74272
2016-07-30T00:53:40.140Z,74281
2016-07-30T00:53:48.847Z,74275
2016-07-30T00:53:57.570Z,74278
2016-07-30T00:54:06.294Z,74275
2016-07-30T00:54:15.021Z,74277
2016-07-30T00:54:23.717Z,74275
2016-07-30T00:54:32.411Z,74273
2016-07-30T00:54:41.110Z,74277
2016-07-30T00:54:49.802Z,74276
2016-07-30T00:54:58.503Z,74276
2016-07-30T00:55:07.221Z,74273
2016-07-30T00:55:15.931Z,74275
2016-07-30T00:55:24.646Z,74276
2016-07-30T00:55:33.338Z,74278
2016-07-30T00:55:42.043Z,74273
2016-07-30T00:55:50.726Z,74271
2016-07-30T00:55:59.419Z,74272
2016-07-30T00:56:08.177Z,74264
2016-07-30T00:56:16.892Z,74270
2016-07-30T00:56:25.622Z,74265
2016-07-30T00:56:34.339Z,74269
2016-07-30T00:56:43.061Z,74270
2016-07-30T00:56:51.749Z,74267
2016-07-30T00:57:00.474Z,74270
2016-07-30T00:57:09.191Z,74267
2016-07-30T00:57:17.891Z,74269
2016-07-30T00:57:26.593Z,74267
2016-07-30T00:57:35.327Z,74271
2016-07-30T00:57:44.031Z,74270
2016-07-30T00:57:52.736Z,74265
2016-07-30T00:58:01.470Z,74267
2016-07-30T00:58:10.201Z,74265
2016-07-30T00:58:18.903Z,74266
2016-07-30T00:58:27.607Z,74264
2016-07-30T00:58:36.294Z,74262
2016-07-30T00:58:45.018Z,74259
2016-07-30T00:58:53.774Z,74252
2016-07-30T00:59:02.485Z,74263
2016-07-30T00:59:11.169Z,74263
2016-07-30T00:59:19.831Z,74263
2016-07-30T00:59:28.528Z,74261
2016-07-30T00:59:37.214Z,74265
2016-07-30T00:59:45.949Z,74270
2016-07-30T00:59:54.660Z,74268
2016-07-30T01:00:03.405Z,74272
2016-07-30T01:00:12.124Z,74272
2016-07-30T01:00:20.831Z,74272
2016-07-30T01:00:29.541Z,74270
2016-07-30T01:00:38.271Z,74272
2016-07-30T01:00:46.991Z,74272
2016-07-30T01:00:55.684Z,74275
2016-07-30T01:01:04.408Z,74273
2016-07-30T01:01:13.063Z,74271
2016-07-30T01:01:21.768Z,74273
2016-07-30T01:01:30.494Z,74279
2016-07-30T01:01:39.219Z,74277
2016-07-30T01:01:47.970Z,74279
2016-07-30T01:01:56.671Z,74274
2016-07-30T01:02:05.367Z,74273
2016-07-30T01:02:14.112Z,74279
2016-07-30T01:02:22.824Z,74279
2016-07-30T01:02:31.563Z,74280
2016-07-30T01:02:40.945Z,74277
2016-07-30T01:02:49.653Z,74280
2016-07-30T01:02:58.400Z,74272
2016-07-30T01:03:07.137Z,74270
2016-07-30T01:03:15.839Z,74269
2016-07-30T01:03:24.562Z,74266
2016-07-30T01:03:33.265Z,74272
2016-07-30T01:03:41.996Z,74268
2016-07-30T01:03:50.679Z,74271
2016-07-30T01:03:59.423Z,74266
2016-07-30T01:04:08.780Z,74273
2016-07-30T01:04:17.462Z,74273
2016-07-30T01:04:26.160Z,74275
2016-07-30T01:04:34.869Z,74274
2016-07-30T01:04:43.617Z,74276
2016-07-30T01:04:52.339Z,74277
2016-07-30T01:05:01.062Z,74278
2016-07-30T01:05:09.780Z,74277
2016-07-30T01:05:18.473Z,74278
2016-07-30T01:05:27.160Z,74276
2016-07-30T01:05:35.841Z,74277
2016-07-30T01:05:44.551Z,74276
2016-07-30T01:05:53.274Z,74275
2016-07-30T01:06:01.997Z,74279
2016-07-30T01:06:10.704Z,74277
2016-07-30T01:06:19.459Z,74280
2016-07-30T01:06:28.145Z,74274
2016-07-30T01:06:36.945Z,74269
2016-07-30T01:06:45.667Z,74270
2016-07-30T01:06:54.402Z,74273
2016-07-30T01:07:03.150Z,74277
2016-07-30T01:07:11.838Z,74275
2016-07-30T01:07:29.289Z,74276
2016-07-30T01:07:38.037Z,74279
2016-07-30T01:07:46.775Z,74275
2016-07-30T01:07:55.497Z,74278
2016-07-30T01:08:04.224Z,74273
2016-07-30T01:08:12.933Z,74273
2016-07-30T01:08:21.664Z,74274
2016-07-30T01:08:30.368Z,74274
2016-07-30T01:08:39.752Z,74271
2016-07-30T01:08:48.496Z,74277
2016-07-30T01:08:57.209Z,74276
2016-07-30T01:09:05.938Z,74278
2016-07-30T01:09:14.618Z,74283
2016-07-30T01:09:23.342Z,74281
2016-07-30T01:09:32.023Z,74277
2016-07-30T01:09:40.749Z,74279
2016-07-30T01:09:49.456Z,74276
2016-07-30T01:09:58.156Z,74276
2016-07-30T01:10:06.865Z,74278
2016-07-30T01:10:16.290Z,74279
2016-07-30T01:10:25.010Z,74278
2016-07-30T01:10:33.742Z,74281
2016-07-30T01:10:42.521Z,74283
2016-07-30T01:10:51.955Z,74279
2016-07-30T01:11:00.709Z,74279
2016-07-30T01:11:09.431Z,74276
2016-07-30T01:11:18.094Z,74274
2016-07-30T01:11:26.794Z,74281
2016-07-30T01:11:35.514Z,74279
2016-07-30T01:11:44.201Z,74281
2016-07-30T01:11:52.960Z,74278
2016-07-30T01:12:01.643Z,74278
2016-07-30T01:12:10.323Z,74280
2016-07-30T01:12:19.032Z,74280
2016-07-30T01:12:27.745Z,74282
2016-07-30T01:12:36.454Z,74279
2016-07-30T01:12:45.216Z,74283
2016-07-30T01:12:53.922Z,74282
2016-07-30T01:13:02.622Z,74286
2016-07-30T01:13:11.333Z,74287
2016-07-30T01:13:20.051Z,74283
2016-07-30T01:13:28.788Z,74282
2016-07-30T01:13:37.521Z,74280
2016-07-30T01:13:46.250Z,74276
2016-07-30T01:13:54.954Z,74274
2016-07-30T01:14:03.679Z,74280
2016-07-30T01:14:12.361Z,74278
2016-07-30T01:14:21.088Z,74281
2016-07-30T01:14:29.846Z,74280
2016-07-30T01:14:38.515Z,74282
2016-07-30T01:14:47.215Z,74282
2016-07-30T01:14:55.912Z,74282
2016-07-30T01:15:04.633Z,74280
2016-07-30T01:15:13.390Z,74286
2016-07-30T01:15:22.072Z,74286
2016-07-30T01:15:31.456Z,74282
2016-07-30T01:15:40.149Z,74282
2016-07-30T01:15:48.876Z,74278
2016-07-30T01:15:57.592Z,74279
2016-07-30T01:16:06.299Z,74277
2016-07-30T01:16:14.989Z,74273
2016-07-30T01:16:23.698Z,74277
2016-07-30T01:16:32.418Z,74275
2016-07-30T01:16:41.155Z,74272
2016-07-30T01:16:49.873Z,74274
2016-07-30T01:16:58.639Z,74275
2016-07-30T01:17:07.338Z,74270
2016-07-30T01:17:16.063Z,74267
2016-07-30T01:17:24.766Z,74273
2016-07-30T01:17:33.518Z,74272
2016-07-30T01:17:42.237Z,74274
2016-07-30T01:17:50.949Z,74275
2016-07-30T01:17:59.670Z,74274
2016-07-30T01:18:08.391Z,74272
2016-07-30T01:18:17.087Z,74276
2016-07-30T01:18:25.804Z,74274
2016-07-30T01:18:34.505Z,74275
2016-07-30T01:18:43.185Z,74275
2016-07-30T01:18:51.868Z,74277
2016-07-30T01:19:00.589Z,74277
2016-07-30T01:19:09.326Z,74280
2016-07-30T01:19:18.012Z,74277
2016-07-30T01:19:26.704Z,74280
2016-07-30T01:19:35.415Z,74278
2016-07-30T01:19:44.108Z,74276
2016-07-30T01:19:52.780Z,74276
2016-07-30T01:20:01.504Z,74270
2016-07-30T01:20:10.248Z,74273
2016-07-30T01:20:18.965Z,74272
2016-07-30T01:20:27.650Z,74278
2016-07-30T01:20:36.346Z,74270
2016-07-30T01:20:45.068Z,74272
2016-07-30T01:20:53.812Z,74275
2016-07-30T01:21:02.505Z,74275
2016-07-30T01:21:11.183Z,74275
2016-07-30T01:21:19.886Z,74275
2016-07-30T01:21:28.607Z,74275
2016-07-30T01:21:37.362Z,74272
2016-07-30T01:21:46.107Z,74270
2016-07-30T01:21:54.806Z,74264
2016-07-30T01:22:03.489Z,74268
2016-07-30T01:22:12.216Z,74268
2016-07-30T01:22:29.655Z,74267
2016-07-30T01:22:38.351Z,74272
2016-07-30T01:22:47.083Z,74271
2016-07-30T01:22:55.785Z,74266
2016-07-30T01:23:04.469Z,74268
2016-07-30T01:23:13.176Z,74270
2016-07-30T01:23:21.914Z,74274
2016-07-30T01:23:30.624Z,74275
2016-07-30T01:23:39.342Z,74277
2016-07-30T01:23:48.095Z,74275
2016-07-30T01:23:56.788Z,74274
2016-07-30T01:24:05.513Z,74273
2016-07-30T01:24:14.258Z,74270
2016-07-30T01:24:22.981Z,74275
2016-07-30T01:24:31.704Z,74275
2016-07-30T01:24:40.438Z,74275
2016-07-30T01:24:49.821Z,74275
2016-07-30T01:24:58.525Z,74274
2016-07-30T01:25:07.257Z,74270
2016-07-30T01:25:15.995Z,74274
2016-07-30T01:25:24.673Z,74277
2016-07-30T01:25:33.364Z,74278
2016-07-30T01:25:42.106Z,74275
2016-07-30T01:25:50.824Z,74275
2016-07-30T01:25:59.530Z,74273
2016-07-30T01:26:08.210Z,74270
2016-07-30T01:26:16.899Z,74262
2016-07-30T01:26:25.601Z,74268
2016-07-30T01:26:34.329Z,74270
2016-07-30T01:26:43.031Z,74270
2016-07-30T01:26:51.761Z,74268
2016-07-30T01:27:00.459Z,74263
2016-07-30T01:27:09.198Z,74262
2016-07-30T01:27:17.940Z,74262
2016-07-30T01:27:27.413Z,74262
2016-07-30T01:27:36.128Z,74264
2016-07-30T01:27:44.856Z,74268
2016-07-30T01:27:53.552Z,74270
2016-07-30T01:28:02.255Z,74271
2016-07-30T01:28:10.992Z,74270
2016-07-30T01:28:19.685Z,74272
2016-07-30T01:28:28.406Z,74269
2016-07-30T01:28:37.118Z,74270
2016-07-30T01:28:45.843Z,74264
2016-07-30T01:28:54.588Z,74263
2016-07-30T01:29:03.312Z,74259
2016-07-30T01:29:12.045Z,74267
2016-07-30T01:29:20.807Z,74269
2016-07-30T01:29:29.538Z,74267
2016-07-30T01:29:38.230Z,74268
2016-07-30T01:29:46.935Z,74267
2016-07-30T01:29:55.646Z,74267
2016-07-30T01:30:04.315Z,74266
2016-07-30T01:30:13.032Z,74267
2016-07-30T01:30:21.699Z,74263
2016-07-30T01:30:30.422Z,74268
2016-07-30T01:30:39.126Z,74270
2016-07-30T01:30:47.851Z,74267
2016-07-30T01:30:56.509Z,74270
2016-07-30T01:31:05.209Z,74272
2016-07-30T01:31:13.916Z,74274
2016-07-30T01:31:22.616Z,74268
2016-07-30T01:31:31.281Z,74269
2016-07-30T01:31:39.999Z,74268
2016-07-30T01:31:49.369Z,74273
2016-07-30T01:31:58.082Z,74273
2016-07-30T01:32:06.840Z,74270
2016-07-30T01:32:15.561Z,74269
2016-07-30T01:32:24.249Z,74267
2016-07-30T01:32:32.978Z,74267
2016-07-30T01:32:41.703Z,74270
2016-07-30T01:32:50.435Z,74266
2016-07-30T01:32:59.100Z,74268
2016-07-30T01:33:07.779Z,74273
2016-07-30T01:33:16.513Z,74266
2016-07-30T01:33:25.192Z,74266
2016-07-30T01:33:33.916Z,74270
2016-07-30T01:33:42.640Z,74271
2016-07-30T01:33:51.344Z,74268
2016-07-30T01:34:00.025Z,74266
2016-07-30T01:34:08.735Z,74270
2016-07-30T01:34:17.425Z,74266
2016-07-30T01:34:26.152Z,74266
2016-07-30T01:34:34.865Z,74269
2016-07-30T01:34:43.571Z,74269
2016-07-30T01:34:52.305Z,74269
2016-07-30T01:35:01.012Z,74270
2016-07-30T01:35:09.735Z,74266
2016-07-30T01:35:18.447Z,74268
2016-07-30T01:35:27.193Z,74268
2016-07-30T01:35:35.943Z,74268
2016-07-30T01:35:44.667Z,74265
2016-07-30T01:35:53.378Z,74264
2016-07-30T01:36:02.114Z,74264
2016-07-30T01:36:11.509Z,74264
2016-07-30T01:36:20.242Z,74263
2016-07-30T01:36:28.919Z,74263
2016-07-30T01:36:37.601Z,74264
2016-07-30T01:36:46.290Z,74261
2016-07-30T01:36:55.004Z,74269
2016-07-30T01:37:03.679Z,74267
2016-07-30T01:37:12.393Z,74264
2016-07-30T01:37:29.811Z,74268
2016-07-30T01:37:38.545Z,74270
2016-07-30T01:37:47.283Z,74270
2016-07-30T01:37:55.992Z,74273
2016-07-30T01:38:05.398Z,74271
2016-07-30T01:38:14.067Z,74272
2016-07-30T01:38:22.750Z,74270
2016-07-30T01:38:31.450Z,74269
2016-07-30T01:38:40.187Z,74272
2016-07-30T01:38:48.853Z,74266
2016-07-30T01:38:57.578Z,74270
2016-07-30T01:39:06.313Z,74272
2016-07-30T01:39:15.033Z,74271
2016-07-30T01:39:23.715Z,74274
2016-07-30T01:39:32.421Z,74276
2016-07-30T01:39:41.134Z,74275
2016-07-30T01:39:49.864Z,74272
2016-07-30T01:39:58.586Z,74274
2016-07-30T01:40:07.345Z,74273
2016-07-30T01:40:16.054Z,74271
2016-07-30T01:40:24.778Z,74272
2016-07-30T01:40:33.494Z,74268
2016-07-30T01:40:42.231Z,74268
2016-07-30T01:40:50.932Z,74267
2016-07-30T01:40:59.667Z,74268
2016-07-30T01:41:08.406Z,74268
2016-07-30T01:41:17.144Z,74267
2016-07-30T01:41:25.857Z,74263
2016-07-30T01:41:34.563Z,74267
2016-07-30T01:41:43.266Z,74267
2016-07-30T01:41:51.959Z,74270
2016-07-30T01:42:00.663Z,74274
2016-07-30T01:42:09.342Z,74274
2016-07-30T01:42:18.026Z,74271
2016-07-30T01:42:26.771Z,74270
2016-07-30T01:42:35.487Z,74272
2016-07-30T01:42:44.224Z,74271
2016-07-30T01:42:52.952Z,74270
2016-07-30T01:43:01.655Z,74276
2016-07-30T01:43:10.365Z,74273
2016-07-30T01:43:19.088Z,74271
2016-07-30T01:43:27.819Z,74271
2016-07-30T01:43:36.511Z,74269
2016-07-30T01:43:45.202Z,74271
2016-07-30T01:43:53.897Z,74273
2016-07-30T01:44:02.617Z,74272
2016-07-30T01:44:11.344Z,74273
2016-07-30T01:44:20.067Z,74271
2016-07-30T01:44:28.786Z,74273
2016-07-30T01:44:37.462Z,74272
2016-07-30T01:44:46.181Z,74268
2016-07-30T01:44:54.841Z,74267
2016-07-30T01:45:03.569Z,74270
2016-07-30T01:45:12.289Z,74272
2016-07-30T01:45:21.044Z,74273
2016-07-30T01:45:29.784Z,74270
2016-07-30T01:45:38.489Z,74272
2016-07-30T01:45:47.179Z,74267
2016-07-30T01:45:55.895Z,74269
2016-07-30T01:46:04.618Z,74265
2016-07-30T01:46:13.352Z,74265
2016-07-30T01:46:22.027Z,74269
2016-07-30T01:46:30.724Z,74272
2016-07-30T01:46:39.445Z,74275
2016-07-30T01:46:48.178Z,74275
2016-07-30T01:46:56.887Z,74277
2016-07-30T01:47:05.625Z,74278
2016-07-30T01:47:14.377Z,74274
2016-07-30T01:47:23.124Z,74274
2016-07-30T01:47:31.840Z,74270
2016-07-30T01:47:40.558Z,74274
2016-07-30T01:47:49.264Z,74275
2016-07-30T01:47:57.963Z,74277
2016-07-30T01:48:06.680Z,74277
2016-07-30T01:48:15.426Z,74272
2016-07-30T01:48:24.145Z,74274
2016-07-30T01:48:32.861Z,74274
2016-07-30T01:48:41.550Z,74273
2016-07-30T01:48:50.294Z,74275
2016-07-30T01:48:58.977Z,74276
2016-07-30T01:49:07.729Z,74276
2016-07-30T01:49:16.468Z,74272
2016-07-30T01:49:25.205Z,74273
2016-07-30T01:49:34.621Z,74269
2016-07-30T01:49:44.011Z,74266
2016-07-30T01:49:52.756Z,74267
2016-07-30T01:50:01.476Z,74269
2016-07-30T01:50:10.202Z,74269
2016-07-30T01:50:18.867Z,74266
2016-07-30T01:50:27.573Z,74268
2016-07-30T01:50:36.277Z,74265
2016-07-30T01:50:44.958Z,74267
2016-07-30T01:50:53.659Z,74268
2016-07-30T01:51:02.403Z,74267
2016-07-30T01:51:11.113Z,74263
2016-07-30T01:51:19.804Z,74266
2016-07-30T01:51:28.501Z,74267
2016-07-30T01:51:37.162Z,74267
2016-07-30T01:51:45.891Z,74268
2016-07-30T01:51:54.612Z,74267
2016-07-30T01:52:03.334Z,74267
2016-07-30T01:52:12.699Z,74268
2016-07-30T01:52:30.161Z,74267
2016-07-30T01:52:38.892Z,74264
2016-07-30T01:52:47.621Z,74263
2016-07-30T01:52:56.335Z,74265
2016-07-30T01:53:05.077Z,74268
2016-07-30T01:53:13.783Z,74269
2016-07-30T01:53:22.516Z,74268
2016-07-30T01:53:31.222Z,74263
2016-07-30T01:53:39.927Z,74264
2016-07-30T01:53:48.628Z,74266